MET'MAP v2.0
soon released !

Expected late october,
this new version will be
more efficient, smarter,
and hosted on a brand new
server x3 powerfull...
...and still free !


Not compatible ?
Try the mobile version !

LOG IN : | Subscribe | Disclaimer | Who is Orbifly ? |
ICAO code :
Legend : VFR Marginal VFR IFR Intensive IFR Very Intensive IFR
Visi :
Ceiling :
>= 8 km
>= 3000ft
5 to 8 km
1000 to 3000 ft
1500m to 5 km
500 to 1000 ft
800 to 1500m
200 to 500 ft
< 800m
< 200 ft

METAR - GMME Rabat - 28 Sep 2020 04:42 UTC - Data Source NOAA   


- Airport Elevation : 276 ft
- IATA code : RBA
- No reported NOTAMs.


GMME - Rabat

Latest METAR recorded : 2015/08/11 08:00 GMME 110800Z 00000KT 5000 NSC 23/22 Q1014 NOSIG
TAF TAF GMME
Valid from the 28 at 00:00 until the 29 at 06:00 UTC


272300Z 2800/2906 10008KT 6000 BKN015
PROB30
TEMPO 2804/2807 3000 BR BKN010
TEMPO 2810/2819 34012KT

Source NOAA


MET'MAP, your aeronautical weather chart ! - Copyright ORBIFLY December 2007

Programming & Development : Alexandra Zaïnal
Co-Developer : Marc-Olivier Méhu
Technical & hardware support : Manuel Goepfert
Concept & Financing : Baudouin d'Aumeries